Terminal Aerodrome Forecast
Issued by NWS

Home | Current Version | Previous Version | Text Only | Print | Product List | Glossary On
Versions: 1 2 3 4 5 6 7 8 9 10 11 12 13 14 15 16 17 18 19
622
FTUS43 KICT 300520
TAFRSL
TAF
KRSL 300520Z 3006/3106 35017KT P6SM VCSH OVC008
     FM301100 35015G23KT P6SM OVC008
     FM302000 34012KT P6SM BKN020
     FM302200 35010KT P6SM BKN035
     FM310000 35008KT P6SM SCT060=

USA.gov is the U.S. government's official web portal to all federal, state and local government web resources and services.